Time;durP1;ratioP1;P1;durP2;ratioP2;P2;SDS_P1;SDS_P2;PMS_P1;PMS_P2;Temp;Humidity;BMP_temperature;BMP_pressure;BME280_temperature;BME280_humidity;BME280_pressure;Samples;Min_cycle;Max_cycle;Signal;HPM_P1;HPM_P2
2023/10/26 00:00:09;;;;;;;18.70;15.90;;;;;;;13.92;89.65;98880.14;107986;1256;73954;-70
2023/10/26 00:02:38;;;;;;;19.40;15.30;;;;;;;13.95;89.68;98874.13;107944;1256;72510;-69
2023/10/26 00:05:05;;;;;;;18.00;14.90;;;;;;;13.97;89.71;98869.92;107945;1256;71165;-70
2023/10/26 00:07:32;;;;;;;21.30;16.10;;;;;;;14.06;89.65;98865.92;108282;1256;61768;-67
2023/10/26 00:09:59;;;;;;;18.80;14.50;;;;;;;14.03;89.76;98866.34;108277;1256;60243;-67
2023/10/26 00:12:25;;;;;;;20.00;15.40;;;;;;;14.02;89.78;98862.77;107937;1256;72803;-69
2023/10/26 00:14:52;;;;;;;17.30;14.50;;;;;;;14.04;89.82;98858.15;107982;1256;72536;-69
2023/10/26 00:17:19;;;;;;;20.10;16.10;;;;;;;14.08;89.87;98859.31;108007;1256;72768;-69
2023/10/26 00:19:46;;;;;;;19.00;15.20;;;;;;;14.11;89.95;98856.74;108006;1256;61780;-69
2023/10/26 00:22:13;;;;;;;17.00;14.20;;;;;;;14.14;89.82;98856.02;108024;1256;60364;-69
2023/10/26 00:24:40;;;;;;;15.10;13.30;;;;;;;14.15;89.64;98856.29;108014;1256;73840;-69
2023/10/26 00:27:07;;;;;;;15.80;12.80;;;;;;;14.14;89.51;98858.84;107925;1256;72604;-68
2023/10/26 00:29:33;;;;;;;15.90;13.30;;;;;;;14.11;89.40;98856.43;107697;1261;292621;-69
2023/10/26 00:32:00;;;;;;;18.70;14.80;;;;;;;14.08;89.37;98853.02;107887;1256;61833;-68
2023/10/26 00:34:27;;;;;;;16.90;13.70;;;;;;;14.07;89.29;98849.92;107929;1256;60353;-69
2023/10/26 00:36:54;;;;;;;17.40;14.60;;;;;;;14.05;89.24;98852.54;107928;1256;72031;-68
2023/10/26 00:39:20;;;;;;;20.10;14.00;;;;;;;14.05;89.35;98856.36;107990;1256;73183;-69
2023/10/26 00:41:50;;;;;;;14.60;12.90;;;;;;;14.06;89.33;98856.58;108113;1256;71464;-69
2023/10/26 00:44:17;;;;;;;15.10;13.10;;;;;;;14.07;89.26;98850.41;107889;1260;60593;-69
2023/10/26 00:46:44;;;;;;;15.00;13.00;;;;;;;14.10;89.33;98849.57;107963;1256;60329;-69
2023/10/26 00:49:12;;;;;;;15.00;13.30;;;;;;;14.13;89.27;98851.30;107948;1256;73214;-69
2023/10/26 00:51:39;;;;;;;17.10;13.40;;;;;;;14.14;89.27;98848.29;108065;1256;72406;-69
2023/10/26 00:54:06;;;;;;;15.80;13.10;;;;;;;14.15;89.31;98854.48;107884;1261;72757;-70
2023/10/26 00:56:33;;;;;;;17.90;12.20;;;;;;;14.17;89.27;98853.49;107771;1256;60511;-69
2023/10/26 00:59:00;;;;;;;13.90;12.40;;;;;;;14.19;89.29;98856.70;107918;1256;60317;-70
2023/10/26 01:01:27;;;;;;;13.70;11.70;;;;;;;14.18;89.27;98854.39;108046;1256;73664;-67
2023/10/26 01:03:54;;;;;;;12.40;10.90;;;;;;;14.16;89.47;98848.36;107898;1258;72720;-67
2023/10/26 01:06:20;;;;;;;13.60;12.10;;;;;;;14.17;89.51;98844.34;107831;1260;71592;-69
2023/10/26 01:08:47;;;;;;;12.50;10.70;;;;;;;14.20;89.60;98847.45;107944;1256;62172;-68
2023/10/26 01:11:14;;;;;;;12.50;10.50;;;;;;;14.20;89.40;98853.96;108118;1256;60499;-68
2023/10/26 01:13:41;;;;;;;12.00;10.00;;;;;;;14.16;89.51;98851.98;107725;1256;73568;-70
2023/10/26 01:16:08;;;;;;;11.70;9.60;;;;;;;14.14;89.57;98848.23;107672;1256;72523;-71
2023/10/26 01:18:35;;;;;;;13.20;10.40;;;;;;;14.12;89.58;98849.26;107969;1256;72679;-69
2023/10/26 01:21:02;;;;;;;12.20;9.90;;;;;;;14.08;89.65;98848.67;108021;1256;60493;-71
2023/10/26 01:23:29;;;;;;;11.70;8.70;;;;;;;14.06;89.74;98854.02;107966;1256;60358;-70
2023/10/26 01:25:56;;;;;;;10.40;9.30;;;;;;;14.04;89.82;98857.40;107909;1257;73835;-69
2023/10/26 01:28:23;;;;;;;11.40;9.30;;;;;;;14.02;89.88;98852.36;108009;1256;72433;-69
2023/10/26 01:30:50;;;;;;;12.50;9.30;;;;;;;14.02;89.94;98857.09;107996;1256;72765;-68
2023/10/26 01:33:16;;;;;;;9.70;8.50;;;;;;;14.03;90.02;98866.09;108013;1257;60936;-69
2023/10/26 01:35:45;;;;;;;10.80;8.60;;;;;;;14.03;89.97;98867.16;108088;1256;60443;-69
2023/10/26 01:38:13;;;;;;;10.50;7.70;;;;;;;14.02;90.13;98867.98;107923;1256;73666;-70
2023/10/26 01:40:40;;;;;;;10.90;7.90;;;;;;;14.03;90.22;98866.95;107991;1256;72489;-70
2023/10/26 01:43:06;;;;;;;8.70;7.80;;;;;;;14.03;90.39;98869.02;107996;1260;72497;-71
2023/10/26 01:45:34;;;;;;;10.00;8.70;;;;;;;14.03;90.43;98871.33;107945;1256;61821;-70
2023/10/26 01:48:02;;;;;;;8.50;7.10;;;;;;;14.04;90.56;98870.02;107924;1256;60359;-69
2023/10/26 01:50:30;;;;;;;10.00;8.00;;;;;;;14.06;90.46;98874.56;108015;1256;72644;-69
2023/10/26 01:52:57;;;;;;;11.60;8.00;;;;;;;14.07;90.50;98877.77;108024;1260;71765;-70
2023/10/26 01:55:24;;;;;;;7.90;6.90;;;;;;;14.08;90.46;98881.33;108074;1260;72426;-70
2023/10/26 01:57:50;;;;;;;9.00;7.50;;;;;;;13.84;90.96;98880.58;107916;1257;61857;-70
2023/10/26 02:00:18;;;;;;;9.70;7.80;;;;;;;13.61;92.11;98882.21;107790;1256;60386;-70
2023/10/26 02:02:47;;;;;;;8.90;7.20;;;;;;;13.67;92.71;98884.14;108194;1256;73848;-69
2023/10/26 02:05:14;;;;;;;9.70;7.60;;;;;;;13.99;91.79;98887.56;107921;1256;71463;-69
2023/10/26 02:07:40;;;;;;;10.50;7.10;;;;;;;14.06;91.39;98888.31;107922;1256;70980;-69
2023/10/26 02:10:08;;;;;;;8.30;7.20;;;;;;;14.08;90.96;98888.23;107877;1256;60811;-67
2023/10/26 02:12:35;;;;;;;9.00;7.20;;;;;;;14.09;90.74;98890.59;107944;1256;60537;-67
2023/10/26 02:15:02;;;;;;;9.00;7.60;;;;;;;14.09;90.54;98887.74;107890;1257;73658;-68
2023/10/26 02:17:29;;;;;;;7.70;6.80;;;;;;;14.11;90.37;98889.55;108164;1256;72802;-69
2023/10/26 02:19:56;;;;;;;8.40;7.00;;;;;;;13.94;90.36;98887.80;108013;1256;72698;-68
2023/10/26 02:22:23;;;;;;;8.70;7.30;;;;;;;13.64;91.46;98891.38;107932;1256;62013;-69
2023/10/26 02:24:50;;;;;;;7.30;6.30;;;;;;;13.55;91.83;98896.89;108059;1256;60469;-69
2023/10/26 02:27:16;;;;;;;8.30;6.30;;;;;;;13.52;92.00;98898.67;107905;1256;73686;-70
2023/10/26 02:29:43;;;;;;;7.90;6.60;;;;;;;13.49;92.05;98901.39;107958;1256;72567;-69
2023/10/26 02:32:10;;;;;;;8.40;6.30;;;;;;;13.79;91.52;98896.90;107967;1256;72486;-69
2023/10/26 02:34:37;;;;;;;8.70;6.00;;;;;;;13.95;90.37;98898.83;107932;1257;61802;-69
2023/10/26 02:37:03;;;;;;;7.50;6.70;;;;;;;13.99;89.82;98900.84;107986;1256;60335;-69
2023/10/26 02:39:30;;;;;;;7.80;6.90;;;;;;;14.00;89.40;98896.29;108078;1257;74034;-70
2023/10/26 02:41:57;;;;;;;9.10;6.50;;;;;;;14.01;89.00;98895.71;108001;1256;72611;-69
2023/10/26 02:44:25;;;;;;;6.80;5.70;;;;;;;14.01;88.77;98897.55;107947;1260;72670;-69
2023/10/26 02:46:51;;;;;;;8.50;6.70;;;;;;;14.01;88.58;98896.09;108043;1257;60361;-69
2023/10/26 02:49:18;;;;;;;6.60;5.90;;;;;;;14.00;88.24;98895.19;107934;1256;60463;-69
2023/10/26 02:51:45;;;;;;;7.30;6.40;;;;;;;13.99;88.03;98901.13;107901;1257;72756;-69
2023/10/26 02:54:11;;;;;;;7.00;6.00;;;;;;;13.98;87.92;98904.38;107899;1256;72780;-69
2023/10/26 02:56:38;;;;;;;7.50;5.90;;;;;;;13.95;87.80;98905.11;107964;1256;72614;-69
2023/10/26 02:59:05;;;;;;;8.50;6.00;;;;;;;13.94;87.65;98905.73;107916;1260;61828;-69
2023/10/26 03:01:33;;;;;;;6.70;5.40;;;;;;;13.93;87.62;98910.92;107901;1257;60453;-70
2023/10/26 03:04:01;;;;;;;9.30;5.90;;;;;;;13.92;87.44;98910.63;108335;1260;72933;-70
2023/10/26 03:06:29;;;;;;;6.60;5.90;;;;;;;13.92;87.33;98911.33;107946;1256;72607;-70
2023/10/26 03:08:55;;;;;;;8.50;5.70;;;;;;;13.93;87.18;98913.14;107928;1257;72520;-69
2023/10/26 03:11:22;;;;;;;7.20;5.90;;;;;;;13.96;87.16;98914.20;107778;1259;62148;-69
2023/10/26 03:13:49;;;;;;;6.80;6.00;;;;;;;13.95;87.07;98915.43;107898;1260;60508;-69
2023/10/26 03:16:16;;;;;;;7.90;5.40;;;;;;;13.93;86.92;98915.00;107943;1257;73689;-69
2023/10/26 03:18:43;;;;;;;7.10;6.00;;;;;;;13.94;86.98;98918.71;107919;1257;72715;-70
2023/10/26 03:21:10;;;;;;;6.80;6.00;;;;;;;13.94;86.96;98917.95;108038;1256;72659;-70
2023/10/26 03:23:36;;;;;;;6.30;5.40;;;;;;;13.95;86.79;98917.36;107932;1259;60821;-71
2023/10/26 03:26:09;;;;;;;8.50;5.70;;;;;;;13.92;86.71;98917.55;107708;1262;60414;-70
2023/10/26 03:28:36;;;;;;;7.60;5.90;;;;;;;13.91;86.70;98917.88;107797;1257;73693;-70
2023/10/26 03:31:02;;;;;;;6.70;5.70;;;;;;;13.90;86.72;98918.17;108000;1256;72636;-70
2023/10/26 03:33:30;;;;;;;7.90;5.90;;;;;;;13.91;86.65;98916.51;107994;1260;72774;-70
2023/10/26 03:35:57;;;;;;;8.30;6.00;;;;;;;13.92;86.69;98915.54;107855;1256;61770;-70
2023/10/26 03:38:23;;;;;;;7.30;6.10;;;;;;;13.95;86.67;98912.40;107924;1256;60531;-71
2023/10/26 03:40:51;;;;;;;6.70;6.00;;;;;;;13.98;86.64;98912.99;107961;1257;73856;-70
2023/10/26 03:43:19;;;;;;;5.90;5.00;;;;;;;14.00;86.56;98913.05;107656;1257;72750;-70
2023/10/26 03:45:48;;;;;;;7.20;5.70;;;;;;;13.99;86.34;98920.77;107929;1261;71089;-71
2023/10/26 03:48:18;;;;;;;7.30;5.40;;;;;;;13.98;86.24;98925.31;107944;1257;62069;-71
2023/10/26 03:50:47;;;;;;;6.80;5.30;;;;;;;13.96;86.28;98926.77;108013;1256;60456;-70
2023/10/26 03:53:14;;;;;;;6.30;5.00;;;;;;;13.94;86.13;98931.29;107900;1258;73946;-71
2023/10/26 03:55:43;;;;;;;6.00;5.00;;;;;;;13.93;86.15;98933.94;107916;1257;72547;-70
2023/10/26 03:58:17;;;;;;;6.50;5.50;;;;;;;13.94;86.05;98934.95;107919;1257;73712;-71
2023/10/26 04:00:47;;;;;;;6.50;5.00;;;;;;;13.95;86.06;98937.26;107793;1256;60586;-70
2023/10/26 04:03:18;;;;;;;6.80;4.90;;;;;;;13.98;86.06;98934.75;108313;1256;60383;-71
2023/10/26 04:05:49;;;;;;;7.50;5.40;;;;;;;13.99;85.95;98936.18;108061;1256;74617;-70
2023/10/26 04:08:19;;;;;;;6.20;4.90;;;;;;;14.00;85.84;98940.44;108000;1256;72681;-71
2023/10/26 04:10:51;;;;;;;8.10;5.50;;;;;;;13.94;85.77;98943.41;107912;1256;72265;-69
2023/10/26 04:13:30;;;;;;;6.70;4.80;;;;;;;13.95;85.58;98945.69;107914;1256;62058;-70
2023/10/26 04:16:11;;;;;;;6.80;4.70;;;;;;;13.96;85.29;98947.11;108099;1257;60163;-70
2023/10/26 04:18:55;;;;;;;6.20;4.50;;;;;;;13.98;85.30;98952.14;107987;1257;73851;-70
2023/10/26 04:21:42;;;;;;;5.60;4.60;;;;;;;13.97;85.13;98958.13;107948;1257;72763;-69
2023/10/26 04:24:14;;;;;;;6.40;4.30;;;;;;;13.98;84.97;98962.45;107999;1257;71136;-70
2023/10/26 04:26:49;;;;;;;6.00;4.60;;;;;;;13.99;84.98;98968.07;107933;1260;60680;-71
2023/10/26 04:29:26;;;;;;;5.30;4.10;;;;;;;13.99;84.73;98969.84;108143;1257;60343;-69
2023/10/26 04:32:01;;;;;;;6.70;4.60;;;;;;;13.99;84.71;98971.92;107929;1256;75262;-71
2023/10/26 04:34:36;;;;;;;5.70;4.20;;;;;;;13.99;84.61;98977.15;108041;1256;74090;-71
2023/10/26 04:37:04;;;;;;;6.30;4.40;;;;;;;14.01;84.49;98978.42;108020;1257;73471;-69
2023/10/26 04:39:43;;;;;;;5.90;4.80;;;;;;;13.99;84.44;98979.97;108063;1257;60502;-70
2023/10/26 04:42:13;;;;;;;6.50;4.10;;;;;;;13.96;84.39;98979.92;108025;1257;61085;-69
2023/10/26 04:44:43;;;;;;;5.60;4.50;;;;;;;13.96;84.46;98977.62;107866;1257;72859;-70
2023/10/26 04:47:12;;;;;;;5.70;4.80;;;;;;;13.98;84.50;98982.38;108221;1256;72550;-69
2023/10/26 04:49:49;;;;;;;6.80;4.80;;;;;;;14.01;84.49;98987.12;107908;1257;73815;-70
2023/10/26 04:52:20;;;;;;;7.40;5.30;;;;;;;14.05;84.53;98990.11;107992;1260;61744;-69
2023/10/26 04:54:55;;;;;;;6.90;5.40;;;;;;;14.09;84.45;98992.83;108411;1256;60352;-69
2023/10/26 04:57:24;;;;;;;6.60;5.10;;;;;;;14.13;84.49;98996.00;107905;1257;73300;-69
2023/10/26 04:59:57;;;;;;;5.60;4.70;;;;;;;14.17;84.37;98997.93;108055;1261;73471;-69
2023/10/26 05:02:32;;;;;;;7.70;5.60;;;;;;;14.19;84.25;99000.55;107883;1257;71477;-69
2023/10/26 05:05:04;;;;;;;6.90;5.20;;;;;;;14.19;84.34;99000.10;107988;1257;60839;-68
2023/10/26 05:07:36;;;;;;;7.10;5.50;;;;;;;14.20;84.26;98992.92;107966;1257;60337;-69
2023/10/26 05:10:12;;;;;;;7.20;5.40;;;;;;;14.19;84.32;98995.10;108063;1257;72433;-69
2023/10/26 05:12:52;;;;;;;9.50;7.20;;;;;;;14.13;84.22;98997.52;108001;1260;72689;-69
2023/10/26 05:15:33;;;;;;;8.60;5.90;;;;;;;14.06;84.37;99000.14;107916;1257;71530;-69
2023/10/26 05:18:22;;;;;;;8.40;6.60;;;;;;;14.01;84.54;99000.41;108675;1257;61921;-69
2023/10/26 05:21:01;;;;;;;8.90;7.20;;;;;;;13.97;84.73;99007.89;107807;1262;61972;-69
2023/10/26 05:23:43;;;;;;;9.90;7.00;;;;;;;13.95;84.74;99012.79;107748;1256;73941;-69
2023/10/26 05:26:25;;;;;;;11.10;6.90;;;;;;;13.96;85.00;99011.66;108048;1257;72974;-69
2023/10/26 05:28:56;;;;;;;9.20;7.00;;;;;;;13.93;85.07;99011.25;107965;1257;72738;-69
2023/10/26 05:31:31;;;;;;;8.30;6.80;;;;;;;13.92;85.23;99008.23;107998;1257;62010;-69
2023/10/26 05:34:09;;;;;;;11.00;7.20;;;;;;;13.92;85.21;99011.65;108026;1257;61077;-70
2023/10/26 05:36:55;;;;;;;8.90;6.70;;;;;;;13.93;85.37;99013.46;108028;1260;73786;-71
2023/10/26 05:39:34;;;;;;;11.80;7.10;;;;;;;13.91;85.44;99012.75;108005;1260;72642;-70
2023/10/26 05:42:11;;;;;;;9.40;7.30;;;;;;;13.90;85.53;99013.34;107931;1257;73678;-70
2023/10/26 05:44:41;;;;;;;10.40;7.30;;;;;;;13.90;85.52;99014.03;107938;1256;61941;-70
2023/10/26 05:47:30;;;;;;;10.20;7.60;;;;;;;13.92;85.46;99010.70;108021;1257;61365;-70
2023/10/26 05:50:11;;;;;;;9.20;7.50;;;;;;;13.93;85.45;99012.16;107988;1257;73997;-69
2023/10/26 05:52:49;;;;;;;9.70;7.90;;;;;;;13.96;85.43;99015.51;108034;1260;71156;-70
2023/10/26 05:55:29;;;;;;;9.30;7.20;;;;;;;13.99;85.26;99017.84;107901;1257;74609;-70
2023/10/26 05:58:03;;;;;;;9.50;7.50;;;;;;;14.02;85.04;99023.46;108011;1262;61602;-69
2023/10/26 06:00:38;;;;;;;10.60;7.70;;;;;;;14.03;84.73;99022.42;107769;1263;60608;-70
2023/10/26 06:03:21;;;;;;;10.80;8.20;;;;;;;14.04;84.62;99022.01;107965;1258;73861;-69
2023/10/26 06:05:49;;;;;;;13.10;8.50;;;;;;;14.06;84.41;99023.31;108031;1256;71736;-71
2023/10/26 06:08:19;;;;;;;9.80;8.10;;;;;;;14.08;84.21;99021.23;108057;1260;71423;-70
2023/10/26 06:10:50;;;;;;;9.20;6.90;;;;;;;14.13;84.22;99023.17;107978;1257;61804;-70
2023/10/26 06:13:20;;;;;;;9.00;7.20;;;;;;;14.18;84.01;99025.66;108025;1257;61598;-70
2023/10/26 06:15:47;;;;;;;9.50;7.80;;;;;;;14.21;83.79;99030.48;108008;1258;74176;-70
2023/10/26 06:18:14;;;;;;;9.10;7.70;;;;;;;14.23;83.56;99033.39;107999;1258;72736;-70
2023/10/26 06:20:43;;;;;;;10.90;8.20;;;;;;;14.19;83.03;99030.33;107729;1262;71047;-70
2023/10/26 06:23:12;;;;;;;10.50;8.30;;;;;;;14.19;82.74;99034.10;107985;1257;62200;-70
2023/10/26 06:25:46;;;;;;;10.50;8.20;;;;;;;14.20;82.60;99034.89;107970;1257;61108;-69
2023/10/26 06:28:17;;;;;;;9.40;7.20;;;;;;;14.21;82.20;99035.63;107983;1257;74959;-70
2023/10/26 06:30:52;;;;;;;9.00;7.20;;;;;;;14.22;81.64;99034.65;107970;1257;72669;-71
2023/10/26 06:33:20;;;;;;;10.00;8.00;;;;;;;14.22;81.19;99033.80;107965;1263;72648;-72
2023/10/26 06:35:48;;;;;;;9.70;7.90;;;;;;;14.25;81.23;99036.55;107959;1257;61985;-71
2023/10/26 06:38:16;;;;;;;10.30;8.10;;;;;;;14.28;80.85;99040.05;108006;1258;60034;-70
2023/10/26 06:40:48;;;;;;;10.10;7.90;;;;;;;14.17;81.10;99040.73;108000;1257;73678;-70
2023/10/26 06:43:16;;;;;;;11.20;7.90;;;;;;;14.17;81.18;99043.06;107782;1258;72479;-71
2023/10/26 06:45:53;;;;;;;9.10;7.60;;;;;;;14.35;80.98;99044.44;107938;1260;71208;-71
2023/10/26 06:48:22;;;;;;;12.90;8.40;;;;;;;14.42;80.52;99044.70;107956;1258;62589;-70
2023/10/26 06:51:07;;;;;;;11.40;8.60;;;;;;;14.39;79.89;99040.83;108056;1260;60345;-71
2023/10/26 06:54:05;;;;;;;9.80;7.80;;;;;;;14.36;79.67;99042.86;107951;1257;73779;-70
2023/10/26 06:57:02;;;;;;;10.40;7.80;;;;;;;14.37;79.37;99046.80;107896;1257;73774;-71
2023/10/26 06:59:52;;;;;;;11.30;7.90;;;;;;;14.37;79.38;99044.11;107803;1257;72768;-71
2023/10/26 07:05:40;;;;;;;10.40;7.20;;;;;;;13.95;80.24;99057.09;107804;1257;60574;-72
2023/10/26 07:08:07;;;;;;;10.60;7.80;;;;;;;14.18;79.42;99049.70;107936;1257;74947;-72
2023/10/26 07:10:35;;;;;;;12.00;7.50;;;;;;;14.19;78.94;99048.13;107976;1257;72572;-71
2023/10/26 07:13:02;;;;;;;10.50;8.10;;;;;;;14.20;78.82;99052.66;107731;1257;72752;-71
2023/10/26 07:15:29;;;;;;;9.60;7.90;;;;;;;14.24;78.92;99055.00;107842;1258;61943;-71
2023/10/26 07:17:56;;;;;;;9.90;7.40;;;;;;;14.29;79.01;99058.48;107860;1261;60325;-72
2023/10/26 07:20:23;;;;;;;10.20;7.30;;;;;;;14.33;78.90;99060.05;107787;1257;75060;-70
2023/10/26 07:22:52;;;;;;;12.60;7.80;;;;;;;14.33;78.66;99060.45;107809;1257;73636;-70
2023/10/26 07:25:19;;;;;;;8.10;6.70;;;;;;;14.33;78.50;99059.61;107873;1257;70398;-71
2023/10/26 07:27:45;;;;;;;9.00;7.00;;;;;;;14.33;78.44;99066.05;107821;1256;61778;-71
2023/10/26 07:30:13;;;;;;;9.60;7.80;;;;;;;14.34;78.16;99061.84;107890;1257;61643;-71
2023/10/26 07:32:40;;;;;;;8.60;7.20;;;;;;;14.33;78.09;99067.60;107891;1257;74889;-70
2023/10/26 07:35:08;;;;;;;11.40;7.20;;;;;;;14.36;78.07;99078.23;107759;1257;73001;-71
2023/10/26 07:37:35;;;;;;;9.80;7.80;;;;;;;14.37;77.99;99080.86;107899;1257;72788;-71
2023/10/26 07:40:03;;;;;;;9.10;7.20;;;;;;;14.38;77.97;99079.16;107946;1260;63060;-71
2023/10/26 07:42:50;;;;;;;9.70;7.60;;;;;;;14.43;78.01;99080.86;108027;1257;60405;-70
2023/10/26 07:45:17;;;;;;;9.30;7.30;;;;;;;14.51;77.95;99084.02;107919;1257;74883;-71
2023/10/26 07:47:44;;;;;;;11.00;6.80;;;;;;;14.56;77.69;99083.42;107918;1257;74255;-72
2023/10/26 07:50:11;;;;;;;10.10;7.00;;;;;;;14.64;77.45;99086.98;107836;1257;73533;-72
2023/10/26 07:52:38;;;;;;;9.10;6.40;;;;;;;14.71;77.10;99087.19;107903;1257;62058;-72
2023/10/26 07:55:06;;;;;;;8.50;6.90;;;;;;;14.74;76.54;99090.30;107868;1257;61288;-72
2023/10/26 07:57:33;;;;;;;9.40;6.20;;;;;;;14.72;76.10;99090.91;107910;1257;74092;-72
2023/10/26 08:00:02;;;;;;;8.50;6.40;;;;;;;14.70;75.54;99086.15;108041;1257;72025;-72
2023/10/26 08:02:39;;;;;;;8.30;5.80;;;;;;;14.67;74.79;99084.63;107900;1260;72184;-72
2023/10/26 08:05:12;;;;;;;7.40;5.50;;;;;;;14.66;74.27;99085.39;107934;1260;61107;-72
2023/10/26 08:07:39;;;;;;;7.10;5.90;;;;;;;14.66;74.03;99085.21;107923;1257;60148;-72
2023/10/26 08:10:08;;;;;;;8.50;6.10;;;;;;;14.66;73.66;99081.61;107766;1257;75546;-72
2023/10/26 08:12:37;;;;;;;7.50;5.90;;;;;;;14.69;73.54;99083.21;107777;1257;72270;-72
2023/10/26 08:15:04;;;;;;;7.40;5.50;;;;;;;14.79;73.72;99090.93;107982;1257;72588;-72
2023/10/26 08:17:51;;;;;;;8.50;6.10;;;;;;;14.93;73.40;99082.33;107894;1258;63115;-72
2023/10/26 08:20:19;;;;;;;7.40;5.30;;;;;;;15.06;73.25;99084.79;107881;1257;61224;-72
2023/10/26 08:22:46;;;;;;;8.00;5.60;;;;;;;15.21;73.07;99085.25;107931;1256;73501;-73
2023/10/26 08:25:13;;;;;;;7.30;5.60;;;;;;;15.36;72.76;99082.13;107982;1256;71197;-72
2023/10/26 08:27:43;;;;;;;8.80;5.20;;;;;;;15.47;71.67;99082.02;107939;1257;74392;-73
2023/10/26 08:30:11;;;;;;;5.90;4.20;;;;;;;15.53;70.90;99078.49;107794;1257;63117;-73
2023/10/26 08:32:38;;;;;;;5.60;4.10;;;;;;;15.59;69.57;99074.42;107945;1256;60454;-73
2023/10/26 08:35:09;;;;;;;6.40;4.60;;;;;;;15.62;68.16;99075.29;107922;1260;74139;-73
2023/10/26 08:37:36;;;;;;;5.50;4.00;;;;;;;15.66;67.61;99080.34;107818;1257;71541;-72
2023/10/26 08:40:06;;;;;;;8.70;6.10;;;;;;;15.68;66.32;99087.71;107895;1258;72591;-73
2023/10/26 08:42:33;;;;;;;7.50;5.10;;;;;;;15.71;65.95;99088.08;107798;1257;60424;-72
2023/10/26 08:45:02;;;;;;;6.10;4.20;;;;;;;15.82;65.87;99090.92;107565;1257;61399;-73
2023/10/26 08:47:30;;;;;;;6.80;5.00;;;;;;;15.96;65.12;99086.29;107777;1257;74665;-72
2023/10/26 08:49:58;;;;;;;6.60;4.60;;;;;;;16.06;64.28;99085.06;107700;1257;73540;-74
2023/10/26 08:52:42;;;;;;;6.40;4.50;;;;;;;16.14;63.81;99078.58;107985;1257;73652;-72
2023/10/26 08:55:10;;;;;;;8.10;6.00;;;;;;;16.20;63.66;99078.55;108031;1257;62005;-73
2023/10/26 08:57:51;;;;;;;7.10;4.90;;;;;;;16.32;63.47;99081.53;107841;1257;61278;-73
2023/10/26 09:00:19;;;;;;;10.00;6.70;;;;;;;16.50;63.01;99085.70;107903;1258;73860;-72
2023/10/26 09:02:51;;;;;;;8.90;6.30;;;;;;;16.62;61.64;99086.41;107823;1258;74336;-72
2023/10/26 09:05:19;;;;;;;7.50;5.50;;;;;;;16.71;61.03;99083.16;107958;1257;74207;-71
2023/10/26 09:07:51;;;;;;;9.00;6.40;;;;;;;16.74;60.65;99083.65;107910;1257;61232;-72
2023/10/26 09:10:32;;;;;;;6.10;4.90;;;;;;;16.69;59.37;99083.70;107837;1257;61260;-73
2023/10/26 09:13:04;;;;;;;5.80;3.80;;;;;;;16.64;58.91;99087.94;107965;1257;73884;-73
2023/10/26 09:15:45;;;;;;;;;;;;;;;16.58;58.66;99092.98;107966;1257;72666;-72
2023/10/26 09:18:13;;;;;;;5.60;3.90;;;;;;;16.49;58.83;99094.13;107940;1256;72575;-71
2023/10/26 09:20:41;;;;;;;6.30;4.60;;;;;;;16.35;59.24;99098.48;107966;1260;60357;-72
2023/10/26 09:23:27;;;;;;;6.40;4.40;;;;;;;16.29;59.57;99098.35;107874;1257;60557;-71
2023/10/26 09:26:07;;;;;;;6.10;4.50;;;;;;;16.32;59.71;99097.70;107863;1260;74674;-71
2023/10/26 09:28:53;;;;;;;5.30;3.90;;;;;;;16.45;59.48;99093.06;107883;1256;73722;-72
2023/10/26 09:31:21;;;;;;;5.00;3.70;;;;;;;16.60;59.07;99097.05;108130;1256;72774;-71
2023/10/26 09:33:49;;;;;;;5.40;4.00;;;;;;;16.71;58.99;99097.35;107761;1257;60797;-72
2023/10/26 09:36:18;;;;;;;6.10;4.00;;;;;;;16.83;58.73;99094.84;107971;1260;61278;-72
2023/10/26 09:38:47;;;;;;;6.50;4.30;;;;;;;16.93;57.76;99096.98;107907;1256;74883;-71
2023/10/26 09:41:16;;;;;;;6.20;4.40;;;;;;;17.02;57.38;99092.08;107872;1257;72559;-71
2023/10/26 09:43:43;;;;;;;5.50;4.10;;;;;;;17.07;56.82;99083.08;107872;1257;72599;-71
2023/10/26 09:46:10;;;;;;;6.20;4.30;;;;;;;17.13;56.82;99081.04;107943;1256;61417;-71
2023/10/26 09:48:38;;;;;;;5.10;4.20;;;;;;;17.20;56.95;99082.03;107827;1256;61365;-72
2023/10/26 09:51:06;;;;;;;6.10;4.40;;;;;;;17.20;56.59;99079.95;107855;1257;74523;-71
2023/10/26 09:53:42;;;;;;;7.50;4.80;;;;;;;17.18;57.04;99079.96;107866;1256;72894;-71
2023/10/26 09:56:22;;;;;;;6.00;4.60;;;;;;;17.10;56.83;99084.02;107789;1256;73473;-72
2023/10/26 09:58:51;;;;;;;7.20;4.80;;;;;;;17.00;56.67;99091.10;107877;1257;60478;-72
2023/10/26 10:01:39;;;;;;;6.00;4.80;;;;;;;16.92;57.03;99099.59;107637;1257;61078;-72
2023/10/26 10:04:09;;;;;;;6.50;4.50;;;;;;;16.95;57.35;99099.09;107832;1257;71939;-72
2023/10/26 10:07:00;;;;;;;6.90;4.90;;;;;;;16.96;56.90;99094.13;107844;1258;71851;-72
2023/10/26 10:09:28;;;;;;;;;;;;;;;17.04;56.50;99084.92;107902;1257;71855;-71
2023/10/26 10:12:08;;;;;;;7.30;4.70;;;;;;;16.95;56.76;99085.40;107784;1256;61322;-71
2023/10/26 10:15:03;;;;;;;7.30;5.40;;;;;;;16.85;57.36;99078.60;107887;1256;61598;-71
2023/10/26 10:17:50;;;;;;;8.60;6.10;;;;;;;16.95;57.41;99084.00;107893;1257;73010;-71
2023/10/26 10:20:17;;;;;;;8.10;5.90;;;;;;;17.03;56.70;99074.41;107768;1257;73077;-71
2023/10/26 10:22:45;;;;;;;7.20;5.20;;;;;;;17.08;56.27;99076.18;107840;1257;72381;-71
2023/10/26 10:25:14;;;;;;;6.00;4.40;;;;;;;17.14;56.67;99067.42;108075;1257;60763;-72
2023/10/26 10:27:47;;;;;;;6.40;4.80;;;;;;;17.18;56.56;99063.71;107867;1257;60283;-72
2023/10/26 10:30:18;;;;;;;6.50;4.80;;;;;;;17.23;56.41;99065.88;107959;1257;74878;-71
2023/10/26 10:32:48;;;;;;;6.40;4.90;;;;;;;17.28;56.02;99060.71;107935;1257;72313;-71
2023/10/26 10:35:55;;;;;;;7.40;4.80;;;;;;;17.35;56.15;99061.29;107920;1256;72305;-71
2023/10/26 10:38:23;;;;;;;5.80;4.70;;;;;;;17.45;56.03;99064.36;107906;1256;61852;-72
2023/10/26 10:41:00;;;;;;;6.30;4.60;;;;;;;17.48;55.74;99059.00;107902;1256;59927;-70
2023/10/26 10:43:34;;;;;;;4.70;3.80;;;;;;;17.52;55.65;99055.34;107801;1257;72920;-72
2023/10/26 10:46:18;;;;;;;7.40;4.90;;;;;;;17.55;55.22;99056.91;107808;1257;72744;-71
2023/10/26 10:49:19;;;;;;;6.20;5.00;;;;;;;17.59;55.28;99063.81;107829;1260;72975;-71
2023/10/26 10:51:46;;;;;;;5.40;4.30;;;;;;;17.58;55.20;99064.71;107516;1263;61420;-72
2023/10/26 10:54:18;;;;;;;6.40;4.90;;;;;;;17.63;55.62;99068.47;107941;1257;60181;-73
2023/10/26 10:56:48;;;;;;;7.50;4.90;;;;;;;17.70;55.69;99061.17;108006;1257;74952;-71
2023/10/26 10:59:23;;;;;;;8.20;4.90;;;;;;;17.75;55.55;99063.07;107770;1257;72606;-72
2023/10/26 11:02:07;;;;;;;5.80;4.50;;;;;;;17.79;55.21;99061.29;107847;1257;73820;-72
2023/10/26 11:04:35;;;;;;;7.40;4.90;;;;;;;17.84;55.03;99055.79;107801;1257;60410;-72
2023/10/26 11:07:27;;;;;;;7.30;5.00;;;;;;;17.84;54.97;99059.73;107933;1257;60198;-73
2023/10/26 11:09:59;;;;;;;7.20;4.70;;;;;;;17.87;55.21;99056.87;107747;1261;73419;-71
2023/10/26 11:12:27;;;;;;;5.80;4.70;;;;;;;17.91;55.09;99053.11;107871;1257;73892;-71
2023/10/26 11:14:56;;;;;;;9.20;5.80;;;;;;;17.89;54.47;99051.67;107811;1257;73690;-72
2023/10/26 11:17:23;;;;;;;6.50;4.90;;;;;;;17.73;53.80;99054.29;107889;1256;60325;-71
2023/10/26 11:19:51;;;;;;;7.20;4.80;;;;;;;17.56;54.35;99057.86;107855;1256;60339;-73
2023/10/26 11:22:21;;;;;;;6.40;5.00;;;;;;;17.47;54.52;99061.29;107872;1256;73686;-71
2023/10/26 11:24:57;;;;;;;5.60;4.20;;;;;;;17.36;54.74;99058.94;107882;1256;73855;-71
2023/10/26 11:27:26;;;;;;;6.60;4.20;;;;;;;17.23;54.84;99063.64;107962;1256;74375;-72
2023/10/26 11:30:06;;;;;;;5.60;4.30;;;;;;;17.17;55.52;99064.52;107855;1257;60439;-71
2023/10/26 11:32:34;;;;;;;5.10;4.20;;;;;;;17.19;55.85;99067.73;107944;1256;61182;-71
2023/10/26 11:35:08;;;;;;;5.90;4.40;;;;;;;17.22;56.12;99068.83;107995;1256;74842;-71
2023/10/26 11:37:36;;;;;;;6.00;4.60;;;;;;;17.19;56.16;99067.13;107833;1256;73246;-71
2023/10/26 11:40:04;;;;;;;5.60;4.20;;;;;;;17.15;56.19;99068.30;107855;1257;71685;-71
2023/10/26 11:42:52;;;;;;;5.30;4.20;;;;;;;17.16;56.50;99061.26;107887;1256;60453;-72